sensor_id;sensor_type;location;lat;lon;timestamp;temperature;humidity
74336;DHT22;62755;-33.398;-70.572;2022-09-27T00:01:45;18.00;47.30
74336;DHT22;62755;-33.398;-70.572;2022-09-27T00:04:15;18.00;47.20
74336;DHT22;62755;-33.398;-70.572;2022-09-27T00:06:44;18.00;47.30
74336;DHT22;62755;-33.398;-70.572;2022-09-27T00:09:16;18.00;47.30
74336;DHT22;62755;-33.398;-70.572;2022-09-27T00:11:45;17.90;47.40
74336;DHT22;62755;-33.398;-70.572;2022-09-27T00:14:16;17.80;47.70
74336;DHT22;62755;-33.398;-70.572;2022-09-27T00:16:46;17.80;47.80
74336;DHT22;62755;-33.398;-70.572;2022-09-27T00:19:17;17.60;47.90
74336;DHT22;62755;-33.398;-70.572;2022-09-27T00:21:48;17.70;48.00
74336;DHT22;62755;-33.398;-70.572;2022-09-27T00:24:21;17.70;48.00
74336;DHT22;62755;-33.398;-70.572;2022-09-27T00:26:51;17.80;48.20
74336;DHT22;62755;-33.398;-70.572;2022-09-27T00:29:20;17.80;48.00
74336;DHT22;62755;-33.398;-70.572;2022-09-27T00:31:50;17.80;48.00
74336;DHT22;62755;-33.398;-70.572;2022-09-27T00:34:21;17.80;48.00
74336;DHT22;62755;-33.398;-70.572;2022-09-27T00:36:51;17.80;48.20
74336;DHT22;62755;-33.398;-70.572;2022-09-27T00:39:23;17.60;48.20
74336;DHT22;62755;-33.398;-70.572;2022-09-27T00:41:53;17.60;48.50
74336;DHT22;62755;-33.398;-70.572;2022-09-27T00:47:31;17.50;48.90
74336;DHT22;62755;-33.398;-70.572;2022-09-27T00:50:05;17.50;48.70
74336;DHT22;62755;-33.398;-70.572;2022-09-27T00:52:41;17.60;48.60
74336;DHT22;62755;-33.398;-70.572;2022-09-27T00:55:16;17.60;48.60
74336;DHT22;62755;-33.398;-70.572;2022-09-27T00:57:48;17.60;48.70
74336;DHT22;62755;-33.398;-70.572;2022-09-27T01:00:19;17.70;48.40
74336;DHT22;62755;-33.398;-70.572;2022-09-27T01:02:50;17.80;48.40
74336;DHT22;62755;-33.398;-70.572;2022-09-27T01:05:23;17.80;48.30
74336;DHT22;62755;-33.398;-70.572;2022-09-27T01:07:54;17.70;48.20
74336;DHT22;62755;-33.398;-70.572;2022-09-27T01:10:31;17.60;48.30
74336;DHT22;62755;-33.398;-70.572;2022-09-27T01:13:09;17.50;48.40
74336;DHT22;62755;-33.398;-70.572;2022-09-27T01:15:46;17.50;48.70
74336;DHT22;62755;-33.398;-70.572;2022-09-27T01:18:27;17.50;49.00
74336;DHT22;62755;-33.398;-70.572;2022-09-27T01:21:29;17.50;48.90
74336;DHT22;62755;-33.398;-70.572;2022-09-27T01:24:29;17.50;48.70
74336;DHT22;62755;-33.398;-70.572;2022-09-27T01:30:24;17.40;48.80
74336;DHT22;62755;-33.398;-70.572;2022-09-27T01:33:23;17.30;49.10
74336;DHT22;62755;-33.398;-70.572;2022-09-27T01:36:07;17.40;49.30
74336;DHT22;62755;-33.398;-70.572;2022-09-27T01:38:50;17.40;49.20
74336;DHT22;62755;-33.398;-70.572;2022-09-27T01:41:29;17.40;49.00
74336;DHT22;62755;-33.398;-70.572;2022-09-27T01:44:03;17.40;49.10
74336;DHT22;62755;-33.398;-70.572;2022-09-27T01:46:38;17.40;49.10
74336;DHT22;62755;-33.398;-70.572;2022-09-27T01:49:12;17.40;49.30
74336;DHT22;62755;-33.398;-70.572;2022-09-27T01:51:46;17.30;49.30
74336;DHT22;62755;-33.398;-70.572;2022-09-27T01:54:21;17.20;49.30
74336;DHT22;62755;-33.398;-70.572;2022-09-27T01:56:54;17.20;49.40
74336;DHT22;62755;-33.398;-70.572;2022-09-27T01:59:26;17.10;49.40
74336;DHT22;62755;-33.398;-70.572;2022-09-27T02:02:02;17.10;49.50
74336;DHT22;62755;-33.398;-70.572;2022-09-27T02:04:33;17.00;49.60
74336;DHT22;62755;-33.398;-70.572;2022-09-27T02:07:09;17.00;49.60
74336;DHT22;62755;-33.398;-70.572;2022-09-27T02:09:43;17.00;49.70
74336;DHT22;62755;-33.398;-70.572;2022-09-27T02:12:15;17.00;49.60
74336;DHT22;62755;-33.398;-70.572;2022-09-27T02:14:52;17.00;49.70
74336;DHT22;62755;-33.398;-70.572;2022-09-27T02:17:30;16.90;49.80
74336;DHT22;62755;-33.398;-70.572;2022-09-27T02:20:10;16.90;50.10
74336;DHT22;62755;-33.398;-70.572;2022-09-27T02:22:44;16.90;50.10
74336;DHT22;62755;-33.398;-70.572;2022-09-27T02:25:22;16.90;50.10
74336;DHT22;62755;-33.398;-70.572;2022-09-27T02:27:53;16.90;50.20
74336;DHT22;62755;-33.398;-70.572;2022-09-27T02:30:24;16.90;50.30
74336;DHT22;62755;-33.398;-70.572;2022-09-27T02:32:55;16.80;49.90
74336;DHT22;62755;-33.398;-70.572;2022-09-27T02:35:27;16.80;50.10
74336;DHT22;62755;-33.398;-70.572;2022-09-27T02:37:58;16.70;50.10
74336;DHT22;62755;-33.398;-70.572;2022-09-27T02:40:32;16.60;50.30
74336;DHT22;62755;-33.398;-70.572;2022-09-27T02:43:03;16.60;50.40
74336;DHT22;62755;-33.398;-70.572;2022-09-27T02:45:43;16.60;50.30
74336;DHT22;62755;-33.398;-70.572;2022-09-27T02:48:24;16.70;50.60
74336;DHT22;62755;-33.398;-70.572;2022-09-27T02:51:12;16.60;50.70
74336;DHT22;62755;-33.398;-70.572;2022-09-27T02:53:57;16.70;50.60
74336;DHT22;62755;-33.398;-70.572;2022-09-27T02:56:36;16.70;50.50
74336;DHT22;62755;-33.398;-70.572;2022-09-27T02:59:15;16.60;50.60
74336;DHT22;62755;-33.398;-70.572;2022-09-27T03:01:50;16.60;50.80
74336;DHT22;62755;-33.398;-70.572;2022-09-27T03:04:31;16.50;50.90
74336;DHT22;62755;-33.398;-70.572;2022-09-27T03:07:03;16.40;51.10
74336;DHT22;62755;-33.398;-70.572;2022-09-27T03:09:42;16.20;51.50
74336;DHT22;62755;-33.398;-70.572;2022-09-27T03:12:12;16.20;52.10
74336;DHT22;62755;-33.398;-70.572;2022-09-27T03:14:42;16.30;51.50
74336;DHT22;62755;-33.398;-70.572;2022-09-27T03:17:11;16.40;51.50
74336;DHT22;62755;-33.398;-70.572;2022-09-27T03:19:42;16.40;51.40
74336;DHT22;62755;-33.398;-70.572;2022-09-27T03:22:12;16.50;51.40
74336;DHT22;62755;-33.398;-70.572;2022-09-27T03:24:42;16.40;51.20
74336;DHT22;62755;-33.398;-70.572;2022-09-27T03:27:12;16.40;51.10
74336;DHT22;62755;-33.398;-70.572;2022-09-27T03:29:41;16.30;51.30
74336;DHT22;62755;-33.398;-70.572;2022-09-27T03:32:11;16.20;51.50
74336;DHT22;62755;-33.398;-70.572;2022-09-27T03:34:42;16.10;51.70
74336;DHT22;62755;-33.398;-70.572;2022-09-27T03:37:13;16.10;51.90
74336;DHT22;62755;-33.398;-70.572;2022-09-27T03:39:42;16.10;51.70
74336;DHT22;62755;-33.398;-70.572;2022-09-27T03:42:13;16.10;51.50
74336;DHT22;62755;-33.398;-70.572;2022-09-27T03:44:43;16.20;51.50
74336;DHT22;62755;-33.398;-70.572;2022-09-27T03:47:13;16.20;51.50
74336;DHT22;62755;-33.398;-70.572;2022-09-27T03:49:44;16.20;51.40
74336;DHT22;62755;-33.398;-70.572;2022-09-27T03:52:14;16.20;51.50
74336;DHT22;62755;-33.398;-70.572;2022-09-27T03:54:44;16.20;51.50
74336;DHT22;62755;-33.398;-70.572;2022-09-27T03:57:14;16.30;51.60
74336;DHT22;62755;-33.398;-70.572;2022-09-27T03:59:43;16.40;51.60
74336;DHT22;62755;-33.398;-70.572;2022-09-27T04:02:13;16.40;51.50
74336;DHT22;62755;-33.398;-70.572;2022-09-27T04:04:44;16.40;51.40
74336;DHT22;62755;-33.398;-70.572;2022-09-27T04:07:14;16.40;51.50
74336;DHT22;62755;-33.398;-70.572;2022-09-27T04:09:44;16.40;51.20
74336;DHT22;62755;-33.398;-70.572;2022-09-27T04:12:14;16.40;51.20
74336;DHT22;62755;-33.398;-70.572;2022-09-27T04:14:43;16.40;51.20
74336;DHT22;62755;-33.398;-70.572;2022-09-27T04:17:13;16.30;51.20
74336;DHT22;62755;-33.398;-70.572;2022-09-27T04:19:44;16.20;51.50
74336;DHT22;62755;-33.398;-70.572;2022-09-27T04:22:14;16.20;51.60
74336;DHT22;62755;-33.398;-70.572;2022-09-27T04:24:43;16.10;51.60
74336;DHT22;62755;-33.398;-70.572;2022-09-27T04:27:13;16.10;51.80
74336;DHT22;62755;-33.398;-70.572;2022-09-27T04:29:43;16.00;51.80
74336;DHT22;62755;-33.398;-70.572;2022-09-27T04:32:13;16.00;51.90
74336;DHT22;62755;-33.398;-70.572;2022-09-27T04:34:44;16.00;51.90
74336;DHT22;62755;-33.398;-70.572;2022-09-27T04:37:30;16.00;51.90
74336;DHT22;62755;-33.398;-70.572;2022-09-27T04:40:00;15.80;52.10
74336;DHT22;62755;-33.398;-70.572;2022-09-27T04:42:29;15.80;52.10
74336;DHT22;62755;-33.398;-70.572;2022-09-27T04:45:00;15.80;52.30
74336;DHT22;62755;-33.398;-70.572;2022-09-27T04:47:29;15.80;52.10
74336;DHT22;62755;-33.398;-70.572;2022-09-27T04:50:01;15.80;52.20
74336;DHT22;62755;-33.398;-70.572;2022-09-27T04:52:31;15.80;52.40
74336;DHT22;62755;-33.398;-70.572;2022-09-27T04:55:01;15.70;52.50
74336;DHT22;62755;-33.398;-70.572;2022-09-27T04:57:30;15.60;52.40
74336;DHT22;62755;-33.398;-70.572;2022-09-27T05:00:00;15.60;52.50
74336;DHT22;62755;-33.398;-70.572;2022-09-27T05:02:30;15.60;52.40
74336;DHT22;62755;-33.398;-70.572;2022-09-27T05:05:01;15.60;52.50
74336;DHT22;62755;-33.398;-70.572;2022-09-27T05:07:33;15.50;52.60
74336;DHT22;62755;-33.398;-70.572;2022-09-27T05:10:03;15.50;52.60
74336;DHT22;62755;-33.398;-70.572;2022-09-27T05:12:33;15.50;52.50
74336;DHT22;62755;-33.398;-70.572;2022-09-27T05:15:03;15.50;52.60
74336;DHT22;62755;-33.398;-70.572;2022-09-27T05:17:33;15.50;52.50
74336;DHT22;62755;-33.398;-70.572;2022-09-27T05:20:05;15.50;52.50
74336;DHT22;62755;-33.398;-70.572;2022-09-27T05:22:35;15.50;52.70
74336;DHT22;62755;-33.398;-70.572;2022-09-27T05:25:06;15.40;52.60
74336;DHT22;62755;-33.398;-70.572;2022-09-27T05:27:36;15.40;52.50
74336;DHT22;62755;-33.398;-70.572;2022-09-27T05:30:06;15.40;52.60
74336;DHT22;62755;-33.398;-70.572;2022-09-27T05:32:37;15.30;52.70
74336;DHT22;62755;-33.398;-70.572;2022-09-27T05:35:09;15.30;52.70
74336;DHT22;62755;-33.398;-70.572;2022-09-27T05:37:39;15.30;52.60
74336;DHT22;62755;-33.398;-70.572;2022-09-27T05:40:09;15.20;52.60
74336;DHT22;62755;-33.398;-70.572;2022-09-27T05:42:39;15.20;52.80
74336;DHT22;62755;-33.398;-70.572;2022-09-27T05:45:09;15.10;52.90
74336;DHT22;62755;-33.398;-70.572;2022-09-27T05:47:38;15.00;53.10
74336;DHT22;62755;-33.398;-70.572;2022-09-27T05:50:10;15.00;53.10
74336;DHT22;62755;-33.398;-70.572;2022-09-27T05:52:39;15.00;53.30
74336;DHT22;62755;-33.398;-70.572;2022-09-27T05:55:09;14.90;53.60
74336;DHT22;62755;-33.398;-70.572;2022-09-27T05:57:39;14.80;53.80
74336;DHT22;62755;-33.398;-70.572;2022-09-27T06:00:09;14.80;54.00
74336;DHT22;62755;-33.398;-70.572;2022-09-27T06:02:39;14.80;54.20
74336;DHT22;62755;-33.398;-70.572;2022-09-27T06:05:10;14.80;54.10
74336;DHT22;62755;-33.398;-70.572;2022-09-27T06:07:40;14.80;54.30
74336;DHT22;62755;-33.398;-70.572;2022-09-27T06:10:10;14.80;54.20
74336;DHT22;62755;-33.398;-70.572;2022-09-27T06:12:39;14.80;54.10
74336;DHT22;62755;-33.398;-70.572;2022-09-27T06:15:10;14.70;54.20
74336;DHT22;62755;-33.398;-70.572;2022-09-27T06:17:40;14.70;54.50
74336;DHT22;62755;-33.398;-70.572;2022-09-27T06:20:12;14.70;54.50
74336;DHT22;62755;-33.398;-70.572;2022-09-27T06:22:41;14.80;54.50
74336;DHT22;62755;-33.398;-70.572;2022-09-27T06:25:12;14.60;54.40
74336;DHT22;62755;-33.398;-70.572;2022-09-27T06:27:42;14.40;54.70
74336;DHT22;62755;-33.398;-70.572;2022-09-27T06:30:12;14.10;55.00
74336;DHT22;62755;-33.398;-70.572;2022-09-27T06:32:41;13.90;55.90
74336;DHT22;62755;-33.398;-70.572;2022-09-27T06:35:12;13.70;56.10
74336;DHT22;62755;-33.398;-70.572;2022-09-27T06:37:42;13.90;55.70
74336;DHT22;62755;-33.398;-70.572;2022-09-27T06:40:11;13.80;55.80
74336;DHT22;62755;-33.398;-70.572;2022-09-27T06:42:41;13.80;55.70
74336;DHT22;62755;-33.398;-70.572;2022-09-27T06:45:11;13.80;55.70
74336;DHT22;62755;-33.398;-70.572;2022-09-27T06:47:40;13.70;56.00
74336;DHT22;62755;-33.398;-70.572;2022-09-27T06:50:12;13.80;56.10
74336;DHT22;62755;-33.398;-70.572;2022-09-27T06:52:47;13.90;56.00
74336;DHT22;62755;-33.398;-70.572;2022-09-27T06:55:18;14.00;56.10
74336;DHT22;62755;-33.398;-70.572;2022-09-27T06:57:47;14.10;55.40
74336;DHT22;62755;-33.398;-70.572;2022-09-27T07:00:33;14.20;55.30
74336;DHT22;62755;-33.398;-70.572;2022-09-27T07:03:03;14.30;55.10
74336;DHT22;62755;-33.398;-70.572;2022-09-27T07:05:36;14.40;55.10
74336;DHT22;62755;-33.398;-70.572;2022-09-27T07:08:05;14.30;55.00
74336;DHT22;62755;-33.398;-70.572;2022-09-27T07:10:36;14.40;54.80
74336;DHT22;62755;-33.398;-70.572;2022-09-27T07:13:06;14.40;54.80
74336;DHT22;62755;-33.398;-70.572;2022-09-27T07:15:39;14.40;54.60
74336;DHT22;62755;-33.398;-70.572;2022-09-27T07:18:08;14.20;55.10
74336;DHT22;62755;-33.398;-70.572;2022-09-27T07:20:40;14.20;55.40
74336;DHT22;62755;-33.398;-70.572;2022-09-27T07:23:10;14.20;55.40
74336;DHT22;62755;-33.398;-70.572;2022-09-27T07:25:41;14.20;55.30
74336;DHT22;62755;-33.398;-70.572;2022-09-27T07:28:13;14.20;55.30
74336;DHT22;62755;-33.398;-70.572;2022-09-27T07:30:45;14.20;55.40
74336;DHT22;62755;-33.398;-70.572;2022-09-27T07:33:14;14.30;55.00
74336;DHT22;62755;-33.398;-70.572;2022-09-27T07:35:46;14.30;55.10
74336;DHT22;62755;-33.398;-70.572;2022-09-27T07:38:15;14.30;55.00
74336;DHT22;62755;-33.398;-70.572;2022-09-27T07:40:45;14.30;55.00
74336;DHT22;62755;-33.398;-70.572;2022-09-27T07:43:14;14.40;54.90
74336;DHT22;62755;-33.398;-70.572;2022-09-27T07:45:45;14.40;54.70
74336;DHT22;62755;-33.398;-70.572;2022-09-27T07:48:15;14.40;54.60
74336;DHT22;62755;-33.398;-70.572;2022-09-27T07:50:47;14.40;54.70
74336;DHT22;62755;-33.398;-70.572;2022-09-27T07:53:16;14.40;54.80
74336;DHT22;62755;-33.398;-70.572;2022-09-27T07:55:50;14.40;54.70
74336;DHT22;62755;-33.398;-70.572;2022-09-27T07:58:20;14.20;55.20
74336;DHT22;62755;-33.398;-70.572;2022-09-27T08:00:50;14.20;55.10
74336;DHT22;62755;-33.398;-70.572;2022-09-27T08:03:20;14.20;55.30
74336;DHT22;62755;-33.398;-70.572;2022-09-27T08:05:52;14.10;55.40
74336;DHT22;62755;-33.398;-70.572;2022-09-27T08:08:21;14.10;55.50
74336;DHT22;62755;-33.398;-70.572;2022-09-27T08:10:51;14.10;55.40
74336;DHT22;62755;-33.398;-70.572;2022-09-27T08:13:20;14.20;55.20
74336;DHT22;62755;-33.398;-70.572;2022-09-27T08:15:50;14.10;55.20
74336;DHT22;62755;-33.398;-70.572;2022-09-27T08:18:20;14.10;55.20
74336;DHT22;62755;-33.398;-70.572;2022-09-27T08:20:55;14.10;54.70
74336;DHT22;62755;-33.398;-70.572;2022-09-27T08:23:24;14.10;54.70
74336;DHT22;62755;-33.398;-70.572;2022-09-27T08:25:54;13.70;55.20
74336;DHT22;62755;-33.398;-70.572;2022-09-27T08:28:26;13.70;55.80
74336;DHT22;62755;-33.398;-70.572;2022-09-27T08:30:57;13.70;55.80
74336;DHT22;62755;-33.398;-70.572;2022-09-27T08:33:27;13.90;55.70
74336;DHT22;62755;-33.398;-70.572;2022-09-27T08:35:58;13.90;55.40
74336;DHT22;62755;-33.398;-70.572;2022-09-27T08:38:29;13.90;55.50
74336;DHT22;62755;-33.398;-70.572;2022-09-27T08:41:03;14.00;55.50
74336;DHT22;62755;-33.398;-70.572;2022-09-27T08:43:40;14.00;55.50
74336;DHT22;62755;-33.398;-70.572;2022-09-27T08:46:24;14.10;55.20
74336;DHT22;62755;-33.398;-70.572;2022-09-27T08:49:01;14.10;55.10
74336;DHT22;62755;-33.398;-70.572;2022-09-27T08:51:35;14.20;54.80
74336;DHT22;62755;-33.398;-70.572;2022-09-27T08:54:07;14.20;54.50
74336;DHT22;62755;-33.398;-70.572;2022-09-27T08:56:40;14.30;54.20
74336;DHT22;62755;-33.398;-70.572;2022-09-27T08:59:12;14.30;54.40
74336;DHT22;62755;-33.398;-70.572;2022-09-27T09:01:42;14.30;54.20
74336;DHT22;62755;-33.398;-70.572;2022-09-27T09:04:15;14.20;54.30
74336;DHT22;62755;-33.398;-70.572;2022-09-27T09:06:56;14.20;54.30
74336;DHT22;62755;-33.398;-70.572;2022-09-27T09:09:38;14.20;54.30
74336;DHT22;62755;-33.398;-70.572;2022-09-27T09:12:19;14.10;54.00
74336;DHT22;62755;-33.398;-70.572;2022-09-27T09:15:25;14.10;54.30
74336;DHT22;62755;-33.398;-70.572;2022-09-27T09:18:13;14.00;54.10
74336;DHT22;62755;-33.398;-70.572;2022-09-27T09:20:54;14.00;54.20
74336;DHT22;62755;-33.398;-70.572;2022-09-27T09:23:49;14.00;54.50
74336;DHT22;62755;-33.398;-70.572;2022-09-27T09:26:28;14.00;54.60
74336;DHT22;62755;-33.398;-70.572;2022-09-27T09:29:08;14.00;54.30
74336;DHT22;62755;-33.398;-70.572;2022-09-27T09:31:41;14.00;54.20
74336;DHT22;62755;-33.398;-70.572;2022-09-27T09:34:19;13.90;54.30
74336;DHT22;62755;-33.398;-70.572;2022-09-27T09:36:54;13.90;54.60
74336;DHT22;62755;-33.398;-70.572;2022-09-27T09:39:32;13.90;54.70
74336;DHT22;62755;-33.398;-70.572;2022-09-27T09:42:09;13.90;54.70
74336;DHT22;62755;-33.398;-70.572;2022-09-27T09:44:46;13.90;54.70
74336;DHT22;62755;-33.398;-70.572;2022-09-27T09:47:25;13.90;54.70
74336;DHT22;62755;-33.398;-70.572;2022-09-27T09:49:59;13.90;54.70
74336;DHT22;62755;-33.398;-70.572;2022-09-27T09:52:37;13.90;54.70
74336;DHT22;62755;-33.398;-70.572;2022-09-27T09:55:17;13.90;54.80
74336;DHT22;62755;-33.398;-70.572;2022-09-27T09:57:58;13.90;54.90
74336;DHT22;62755;-33.398;-70.572;2022-09-27T10:00:28;13.90;55.10
74336;DHT22;62755;-33.398;-70.572;2022-09-27T10:02:59;13.90;54.80
74336;DHT22;62755;-33.398;-70.572;2022-09-27T10:05:28;13.90;54.80
74336;DHT22;62755;-33.398;-70.572;2022-09-27T10:08:00;14.00;54.60
74336;DHT22;62755;-33.398;-70.572;2022-09-27T10:10:32;13.90;54.80
74336;DHT22;62755;-33.398;-70.572;2022-09-27T10:13:03;13.90;55.00
74336;DHT22;62755;-33.398;-70.572;2022-09-27T10:15:33;13.90;55.00
74336;DHT22;62755;-33.398;-70.572;2022-09-27T10:18:04;13.90;54.70
74336;DHT22;62755;-33.398;-70.572;2022-09-27T10:20:38;13.90;54.70
74336;DHT22;62755;-33.398;-70.572;2022-09-27T10:23:13;13.80;54.80
74336;DHT22;62755;-33.398;-70.572;2022-09-27T10:25:53;13.70;55.10
74336;DHT22;62755;-33.398;-70.572;2022-09-27T10:28:36;13.70;55.50
74336;DHT22;62755;-33.398;-70.572;2022-09-27T10:31:09;13.70;55.50
74336;DHT22;62755;-33.398;-70.572;2022-09-27T10:33:51;13.70;55.20
74336;DHT22;62755;-33.398;-70.572;2022-09-27T10:36:23;13.90;55.30
74336;DHT22;62755;-33.398;-70.572;2022-09-27T10:38:56;13.90;55.00
74336;DHT22;62755;-33.398;-70.572;2022-09-27T10:41:32;13.80;54.90
74336;DHT22;62755;-33.398;-70.572;2022-09-27T10:46:46;13.70;54.80
74336;DHT22;62755;-33.398;-70.572;2022-09-27T10:49:19;13.50;54.80
74336;DHT22;62755;-33.398;-70.572;2022-09-27T10:51:51;13.30;55.00
74336;DHT22;62755;-33.398;-70.572;2022-09-27T10:54:23;13.10;55.90
74336;DHT22;62755;-33.398;-70.572;2022-09-27T10:56:57;13.10;56.00
74336;DHT22;62755;-33.398;-70.572;2022-09-27T10:59:32;13.00;56.10
74336;DHT22;62755;-33.398;-70.572;2022-09-27T11:02:02;13.00;56.20
74336;DHT22;62755;-33.398;-70.572;2022-09-27T11:04:34;13.10;56.10
74336;DHT22;62755;-33.398;-70.572;2022-09-27T11:07:11;13.10;56.10
74336;DHT22;62755;-33.398;-70.572;2022-09-27T11:09:47;13.30;56.10
74336;DHT22;62755;-33.398;-70.572;2022-09-27T11:12:22;13.40;55.90
74336;DHT22;62755;-33.398;-70.572;2022-09-27T11:14:55;13.50;55.70
74336;DHT22;62755;-33.398;-70.572;2022-09-27T11:17:31;13.50;55.50
74336;DHT22;62755;-33.398;-70.572;2022-09-27T11:20:20;13.60;55.40
74336;DHT22;62755;-33.398;-70.572;2022-09-27T11:25:56;13.70;55.20
74336;DHT22;62755;-33.398;-70.572;2022-09-27T11:28:37;13.60;55.30
74336;DHT22;62755;-33.398;-70.572;2022-09-27T11:31:15;13.60;55.30
74336;DHT22;62755;-33.398;-70.572;2022-09-27T11:34:23;13.70;55.20
74336;DHT22;62755;-33.398;-70.572;2022-09-27T11:37:10;13.80;55.40
74336;DHT22;62755;-33.398;-70.572;2022-09-27T11:39:50;13.80;55.20
74336;DHT22;62755;-33.398;-70.572;2022-09-27T11:45:45;13.90;55.40
74336;DHT22;62755;-33.398;-70.572;2022-09-27T11:48:29;14.00;55.20
74336;DHT22;62755;-33.398;-70.572;2022-09-27T11:51:11;14.10;55.20
74336;DHT22;62755;-33.398;-70.572;2022-09-27T11:53:59;14.20;54.90
74336;DHT22;62755;-33.398;-70.572;2022-09-27T11:56:38;14.30;54.90
74336;DHT22;62755;-33.398;-70.572;2022-09-27T12:05:38;14.50;53.40
74336;DHT22;62755;-33.398;-70.572;2022-09-27T12:08:29;14.50;53.40
74336;DHT22;62755;-33.398;-70.572;2022-09-27T12:11:08;14.40;54.00
74336;DHT22;62755;-33.398;-70.572;2022-09-27T12:13:43;14.50;53.70
74336;DHT22;62755;-33.398;-70.572;2022-09-27T12:16:16;14.50;53.20
74336;DHT22;62755;-33.398;-70.572;2022-09-27T12:18:54;14.60;52.90
74336;DHT22;62755;-33.398;-70.572;2022-09-27T12:21:34;14.60;52.80
74336;DHT22;62755;-33.398;-70.572;2022-09-27T12:24:03;14.70;52.50
74336;DHT22;62755;-33.398;-70.572;2022-09-27T12:26:36;14.70;52.50
74336;DHT22;62755;-33.398;-70.572;2022-09-27T12:29:11;14.70;52.10
74336;DHT22;62755;-33.398;-70.572;2022-09-27T12:31:45;14.70;52.00
74336;DHT22;62755;-33.398;-70.572;2022-09-27T12:34:21;14.80;52.10
74336;DHT22;62755;-33.398;-70.572;2022-09-27T12:36:58;14.90;52.20
74336;DHT22;62755;-33.398;-70.572;2022-09-27T12:39:40;15.00;51.80
74336;DHT22;62755;-33.398;-70.572;2022-09-27T12:42:16;15.00;51.80
74336;DHT22;62755;-33.398;-70.572;2022-09-27T12:44:46;15.00;51.60
74336;DHT22;62755;-33.398;-70.572;2022-09-27T12:47:35;15.00;51.70
74336;DHT22;62755;-33.398;-70.572;2022-09-27T12:50:15;15.20;51.90
74336;DHT22;62755;-33.398;-70.572;2022-09-27T12:52:51;15.30;51.80
74336;DHT22;62755;-33.398;-70.572;2022-09-27T12:55:48;15.40;51.90
74336;DHT22;62755;-33.398;-70.572;2022-09-27T12:58:41;15.50;51.60
74336;DHT22;62755;-33.398;-70.572;2022-09-27T13:01:23;15.40;51.50
74336;DHT22;62755;-33.398;-70.572;2022-09-27T13:04:24;15.40;51.80
74336;DHT22;62755;-33.398;-70.572;2022-09-27T13:07:15;15.40;51.70
74336;DHT22;62755;-33.398;-70.572;2022-09-27T13:10:09;15.40;51.70
74336;DHT22;62755;-33.398;-70.572;2022-09-27T13:12:48;15.40;52.00
74336;DHT22;62755;-33.398;-70.572;2022-09-27T13:15:24;15.50;52.20
74336;DHT22;62755;-33.398;-70.572;2022-09-27T13:17:56;15.50;52.00
74336;DHT22;62755;-33.398;-70.572;2022-09-27T13:20:48;15.50;52.20
74336;DHT22;62755;-33.398;-70.572;2022-09-27T13:26:47;15.80;51.20
74336;DHT22;62755;-33.398;-70.572;2022-09-27T13:29:30;15.80;51.40
74336;DHT22;62755;-33.398;-70.572;2022-09-27T13:32:18;15.90;51.20
74336;DHT22;62755;-33.398;-70.572;2022-09-27T13:34:50;16.00;51.30
74336;DHT22;62755;-33.398;-70.572;2022-09-27T13:37:53;16.10;50.90
74336;DHT22;62755;-33.398;-70.572;2022-09-27T13:40:31;16.10;50.80
74336;DHT22;62755;-33.398;-70.572;2022-09-27T13:46:06;16.40;50.30
74336;DHT22;62755;-33.398;-70.572;2022-09-27T13:48:47;16.40;50.50
74336;DHT22;62755;-33.398;-70.572;2022-09-27T13:51:26;16.40;50.40
74336;DHT22;62755;-33.398;-70.572;2022-09-27T13:54:02;16.50;50.50
74336;DHT22;62755;-33.398;-70.572;2022-09-27T13:56:53;16.60;50.40
74336;DHT22;62755;-33.398;-70.572;2022-09-27T13:59:31;16.70;49.50
74336;DHT22;62755;-33.398;-70.572;2022-09-27T14:02:12;16.80;49.50
74336;DHT22;62755;-33.398;-70.572;2022-09-27T14:04:50;16.90;49.60
74336;DHT22;62755;-33.398;-70.572;2022-09-27T14:07:23;17.00;49.60
74336;DHT22;62755;-33.398;-70.572;2022-09-27T14:09:55;17.00;49.50
74336;DHT22;62755;-33.398;-70.572;2022-09-27T14:12:30;17.10;49.40
74336;DHT22;62755;-33.398;-70.572;2022-09-27T14:15:01;17.20;49.00
74336;DHT22;62755;-33.398;-70.572;2022-09-27T14:17:33;17.20;49.00
74336;DHT22;62755;-33.398;-70.572;2022-09-27T14:20:03;17.20;48.80
74336;DHT22;62755;-33.398;-70.572;2022-09-27T14:22:34;17.40;48.90
74336;DHT22;62755;-33.398;-70.572;2022-09-27T14:25:16;17.50;48.90
74336;DHT22;62755;-33.398;-70.572;2022-09-27T14:27:46;17.50;48.20
74336;DHT22;62755;-33.398;-70.572;2022-09-27T14:30:16;17.60;48.40
74336;DHT22;62755;-33.398;-70.572;2022-09-27T14:32:49;17.50;48.20
74336;DHT22;62755;-33.398;-70.572;2022-09-27T14:35:21;17.50;48.20
74336;DHT22;62755;-33.398;-70.572;2022-09-27T14:38:10;17.50;48.60
74336;DHT22;62755;-33.398;-70.572;2022-09-27T14:40:41;17.60;48.50
74336;DHT22;62755;-33.398;-70.572;2022-09-27T14:43:15;17.80;48.40
74336;DHT22;62755;-33.398;-70.572;2022-09-27T14:45:47;17.90;48.30
74336;DHT22;62755;-33.398;-70.572;2022-09-27T14:48:22;18.00;48.20
74336;DHT22;62755;-33.398;-70.572;2022-09-27T14:50:56;18.20;48.40
74336;DHT22;62755;-33.398;-70.572;2022-09-27T14:53:29;18.60;49.00
74336;DHT22;62755;-33.398;-70.572;2022-09-27T14:56:00;19.20;48.20
74336;DHT22;62755;-33.398;-70.572;2022-09-27T14:58:30;20.30;49.20
74336;DHT22;62755;-33.398;-70.572;2022-09-27T15:01:00;22.10;46.80
74336;DHT22;62755;-33.398;-70.572;2022-09-27T15:03:32;24.40;42.70
74336;DHT22;62755;-33.398;-70.572;2022-09-27T15:06:06;26.40;38.00
74336;DHT22;62755;-33.398;-70.572;2022-09-27T15:08:36;28.00;36.10
74336;DHT22;62755;-33.398;-70.572;2022-09-27T15:11:06;29.10;34.60
74336;DHT22;62755;-33.398;-70.572;2022-09-27T15:13:37;30.30;32.70
74336;DHT22;62755;-33.398;-70.572;2022-09-27T15:16:11;30.80;31.30
74336;DHT22;62755;-33.398;-70.572;2022-09-27T15:18:45;31.30;30.20
74336;DHT22;62755;-33.398;-70.572;2022-09-27T15:21:26;31.70;29.00
74336;DHT22;62755;-33.398;-70.572;2022-09-27T15:23:56;31.80;29.50
74336;DHT22;62755;-33.398;-70.572;2022-09-27T15:26:35;32.00;29.00
74336;DHT22;62755;-33.398;-70.572;2022-09-27T15:29:06;32.40;27.60
74336;DHT22;62755;-33.398;-70.572;2022-09-27T15:31:36;32.50;28.10
74336;DHT22;62755;-33.398;-70.572;2022-09-27T15:34:17;32.00;28.20
74336;DHT22;62755;-33.398;-70.572;2022-09-27T15:36:55;32.50;27.70
74336;DHT22;62755;-33.398;-70.572;2022-09-27T15:39:30;32.70;27.10
74336;DHT22;62755;-33.398;-70.572;2022-09-27T15:42:06;32.80;26.40
74336;DHT22;62755;-33.398;-70.572;2022-09-27T15:44:42;32.20;27.20
74336;DHT22;62755;-33.398;-70.572;2022-09-27T15:47:46;32.40;27.50
74336;DHT22;62755;-33.398;-70.572;2022-09-27T15:50:35;32.50;26.70
74336;DHT22;62755;-33.398;-70.572;2022-09-27T15:53:06;31.90;27.20
74336;DHT22;62755;-33.398;-70.572;2022-09-27T15:55:39;31.30;27.70
74336;DHT22;62755;-33.398;-70.572;2022-09-27T15:58:13;31.10;27.70
74336;DHT22;62755;-33.398;-70.572;2022-09-27T16:00:53;30.80;27.90